Time;durP1;ratioP1;P1;durP2;ratioP2;P2;SDS_P1;SDS_P2;PMS_P1;PMS_P2;Temp;Humidity;BMP_temperature;BMP_pressure;BME280_temperature;BME280_humidity;BME280_pressure;Samples;Min_cycle;Max_cycle;Signal;HPM_P1;HPM_P2
2023/08/01 00:01:47;;;;;;;;;3.00;3.00;;;;;20.13;72.99;99756.16;5026113;28;45370;-72
2023/08/01 00:04:12;;;;;;;;;3.00;3.00;;;;;20.14;73.06;99749.03;5014947;28;47721;-73
2023/08/01 00:06:38;;;;;;;;;3.50;2.50;;;;;20.13;72.94;99761.47;5008078;28;74145;-73
2023/08/01 00:09:03;;;;;;;;;4.25;2.00;;;;;20.12;73.45;99751.00;5017847;28;60320;-72
2023/08/01 00:11:28;;;;;;;;;3.00;3.00;;;;;20.13;72.34;99750.84;5026943;28;59328;-73
2023/08/01 00:13:54;;;;;;;;;4.50;2.00;;;;;20.12;72.98;99751.81;5024610;28;72932;-72
2023/08/01 00:16:19;;;;;;;;;2.00;1.50;;;;;20.11;72.42;99758.09;5030411;28;62239;-72
2023/08/01 00:18:44;;;;;;;;;3.00;3.00;;;;;20.16;72.53;99763.03;5032396;28;65368;-72
2023/08/01 00:21:11;;;;;;;;;3.75;2.00;;;;;20.15;72.92;99756.03;5037808;28;65838;-72
2023/08/01 00:23:37;;;;;;;;;3.00;1.00;;;;;20.13;72.66;99755.31;5018008;28;48083;-73
2023/08/01 00:26:02;;;;;;;;;5.00;2.00;;;;;20.13;72.75;99760.63;5038838;28;45304;-73
2023/08/01 00:28:29;;;;;;;;;2.50;2.50;;;;;20.09;73.22;99752.06;5033814;28;45505;-73
2023/08/01 00:31:08;;;;;;;;;3.25;1.00;;;;;20.12;72.60;99741.19;5025962;28;45372;-72
2023/08/01 00:33:33;;;;;;;;;4.25;2.50;;;;;20.13;72.71;99747.34;5015928;28;47282;-72
2023/08/01 00:35:59;;;;;;;;;3.00;3.00;;;;;20.15;72.66;99756.03;5014286;28;45445;-73
2023/08/01 00:38:24;;;;;;;;;1.50;1.50;;;;;20.12;72.75;99735.06;5037321;28;45376;-73
2023/08/01 00:40:50;;;;;;;;;2.75;1.25;;;;;20.12;72.35;99735.88;5033071;28;60655;-72
2023/08/01 00:43:16;;;;;;;;;2.50;2.00;;;;;20.12;72.76;99737.72;5035464;28;46479;-72
2023/08/01 00:45:42;;;;;;;;;6.75;6.00;;;;;20.04;72.38;99727.69;5026255;28;45748;-72
2023/08/01 00:48:07;;;;;;;;;17.00;11.75;;;;;20.07;72.42;99730.09;5027815;28;46045;-72
2023/08/01 00:50:33;;;;;;;;;8.25;5.00;;;;;20.06;72.57;99731.94;5035534;28;58406;-72
2023/08/01 00:52:58;;;;;;;;;4.00;2.00;;;;;20.06;72.57;99726.63;5028093;28;45433;-71
2023/08/01 00:55:24;;;;;;;;;4.00;3.00;;;;;20.07;72.52;99733.59;5024818;28;69894;-71
2023/08/01 00:57:49;;;;;;;;;2.00;2.00;;;;;20.11;72.38;99731.53;5027904;28;45297;-72
2023/08/01 01:00:15;;;;;;;;;4.75;2.75;;;;;20.07;72.43;99717.66;5031931;28;45515;-72
2023/08/01 01:02:40;;;;;;;;;1.25;1.25;;;;;20.05;72.58;99718.78;5022126;28;48209;-73
2023/08/01 01:05:06;;;;;;;;;1.50;1.50;;;;;20.04;72.09;99725.91;5031095;28;64862;-72
2023/08/01 01:07:31;;;;;;;;;2.25;2.25;;;;;20.07;72.25;99716.84;5033369;28;45705;-73
2023/08/01 01:09:58;;;;;;;;;2.25;1.75;;;;;20.09;72.57;99723.69;5027974;28;45440;-73
2023/08/01 01:12:23;;;;;;;;;1.75;1.50;;;;;20.07;72.67;99703.56;5044927;28;45417;-73
2023/08/01 01:14:48;;;;;;;;;4.00;2.00;;;;;20.09;72.45;99710.41;5021638;28;45519;-73
2023/08/01 01:17:14;;;;;;;;;2.25;2.25;;;;;20.10;72.46;99708.63;5027716;28;69338;-73
2023/08/01 01:19:39;;;;;;;;;2.75;2.50;;;;;20.10;72.89;99709.44;5022427;28;45436;-73
2023/08/01 01:22:06;;;;;;;;;2.25;1.00;;;;;20.09;72.83;99747.59;5034685;28;47048;-72
2023/08/01 01:24:32;;;;;;;;;1.75;1.00;;;;;20.10;72.67;99769.72;5016726;28;45447;-72
2023/08/01 01:26:59;;;;;;;;;1.00;0.75;;;;;19.92;77.14;99782.69;5021031;28;45256;-72
2023/08/01 01:29:26;;;;;;;;;2.00;0.75;;;;;19.73;75.49;99767.38;5033548;28;45466;-73
2023/08/01 01:31:52;;;;;;;;;0.75;0.75;;;;;19.61;74.29;99774.50;5027592;28;45447;-73
2023/08/01 01:34:18;;;;;;;;;0.00;0.00;;;;;19.52;74.21;99775.22;5012960;28;45323;-71
2023/08/01 01:36:43;;;;;;;;;0.00;0.00;;;;;19.44;74.67;99765.25;5035588;28;45342;-72
2023/08/01 01:39:08;;;;;;;;;0.00;0.00;;;;;19.40;74.60;99768.25;5036311;28;45502;-72
2023/08/01 01:41:34;;;;;;;;;2.50;0.00;;;;;19.40;74.80;99774.41;5028846;28;66296;-71
2023/08/01 01:43:59;;;;;;;;;27.00;22.25;;;;;19.39;75.48;99775.38;5019389;28;45487;-72
2023/08/01 01:46:24;;;;;;;;;5.75;5.50;;;;;19.40;75.25;99770.91;5045280;28;60570;-71
2023/08/01 01:48:50;;;;;;;;;4.75;4.25;;;;;19.44;74.97;99772.34;5023818;28;66791;-72
2023/08/01 01:51:15;;;;;;;;;1.00;0.00;;;;;19.43;75.00;99766.19;5051925;28;51789;-71
2023/08/01 01:53:40;;;;;;;;;0.00;0.00;;;;;19.53;74.73;99779.59;5030614;28;58547;-72
2023/08/01 01:56:05;;;;;;;;;2.00;0.00;;;;;19.51;74.32;99773.53;5013060;28;45301;-71
2023/08/01 01:58:31;;;;;;;;;0.00;0.00;;;;;19.53;74.38;99777.78;5031443;28;62759;-72
2023/08/01 02:00:56;;;;;;;;;0.00;0.00;;;;;19.50;74.14;99785.97;5020132;28;62410;-73
2023/08/01 02:03:21;;;;;;;;;0.00;0.00;;;;;19.48;74.66;99785.25;5031358;28;64393;-72
2023/08/01 02:05:47;;;;;;;;;0.00;0.00;;;;;19.43;74.09;99784.78;5034898;28;54910;-73
2023/08/01 02:08:12;;;;;;;;;0.00;0.00;;;;;19.34;74.09;99793.47;5040194;28;68239;-73
2023/08/01 02:10:38;;;;;;;;;2.00;0.50;;;;;19.22;74.66;99787.31;5022435;28;51065;-72
2023/08/01 02:13:04;;;;;;;;;0.00;0.00;;;;;19.15;74.66;99786.09;5044720;28;45296;-72
2023/08/01 02:15:29;;;;;;;;;0.00;0.00;;;;;19.11;74.83;99784.66;5026554;28;45641;-72
2023/08/01 02:17:55;;;;;;;;;23.50;21.25;;;;;19.10;74.66;99789.09;5027696;28;45710;-72
2023/08/01 02:20:21;;;;;;;;;0.00;0.00;;;;;19.06;74.66;99795.63;5022613;28;45409;-72
2023/08/01 02:22:46;;;;;;;;;0.00;0.00;;;;;18.97;74.46;99789.22;5031324;28;56565;-72
2023/08/01 02:25:12;;;;;;;;;0.00;0.00;;;;;18.94;74.92;99800.03;5045255;28;45517;-72
2023/08/01 02:27:37;;;;;;;;;0.50;0.00;;;;;18.85;74.74;99807.88;5023799;28;45747;-73
2023/08/01 02:30:03;;;;;;;;;0.25;0.00;;;;;18.78;74.81;99808.28;5034068;28;73310;-72
2023/08/01 02:32:28;;;;;;;;;0.00;0.00;;;;;18.70;74.94;99820.47;5032338;28;46776;-72
2023/08/01 02:34:53;;;;;;;;;0.00;0.00;;;;;18.64;74.90;99813.81;5028765;28;46958;-71
2023/08/01 02:37:19;;;;;;;;;2.00;1.00;;;;;18.50;74.97;99787.50;5020319;28;65873;-71
2023/08/01 02:39:44;;;;;;;;;0.00;0.00;;;;;18.63;74.86;99814.78;5029495;28;75367;-72
2023/08/01 02:42:09;;;;;;;;;0.00;0.00;;;;;18.62;74.87;99822.84;5015983;28;68757;-72
2023/08/01 02:44:35;;;;;;;;;0.25;0.25;;;;;18.59;74.84;99822.13;5033607;28;59080;-71
2023/08/01 02:47:00;;;;;;;;;3.00;0.00;;;;;18.58;74.60;99828.38;5016286;28;45550;-72
2023/08/01 02:49:25;;;;;;;;;16.50;13.25;;;;;18.56;74.59;99830.28;5029892;28;75140;-72
2023/08/01 02:51:51;;;;;;;;;1.00;1.00;;;;;18.51;74.72;99823.66;5032145;28;60991;-71
2023/08/01 02:54:16;;;;;;;;;0.50;0.50;;;;;18.54;74.59;99834.88;5029892;28;45483;-72
2023/08/01 02:56:41;;;;;;;;;2.75;2.75;;;;;18.50;74.69;99830.75;5031395;28;63654;-72
2023/08/01 02:59:08;;;;;;;;;1.00;1.00;;;;;18.49;74.32;99833.53;5023249;28;46853;-72
2023/08/01 03:01:35;;;;;;;;;2.00;2.00;;;;;18.47;74.55;99832.75;5032424;28;45830;-73
2023/08/01 03:04:04;;;;;;;;;1.25;1.00;;;;;18.43;74.72;99853.34;5044722;28;46219;-72
2023/08/01 03:06:30;;;;;;;;;1.00;1.00;;;;;18.39;74.43;99854.53;5029862;28;45577;-72
2023/08/01 03:08:56;;;;;;;;;1.00;1.00;;;;;18.33;74.11;99855.84;5028554;28;46229;-71
2023/08/01 03:11:21;;;;;;;;;0.00;0.00;;;;;18.32;74.14;99863.91;5035530;28;66479;-72
2023/08/01 03:13:46;;;;;;;;;1.00;1.00;;;;;18.27;74.26;99855.44;5031775;28;69021;-71
2023/08/01 03:16:12;;;;;;;;;1.00;1.00;;;;;18.27;74.28;99863.38;5051347;28;52878;-72
2023/08/01 03:18:37;;;;;;;;;1.25;1.00;;;;;18.25;74.33;99863.50;5030440;28;45381;-72
2023/08/01 03:21:03;;;;;;;;;0.50;0.00;;;;;18.25;74.26;99863.50;5016177;28;62860;-72
2023/08/01 03:23:29;;;;;;;;;2.00;1.00;;;;;18.24;74.11;99867.13;5031339;28;45414;-72
2023/08/01 03:25:55;;;;;;;;;1.00;1.00;;;;;18.24;73.95;99867.13;5033558;28;45768;-72
2023/08/01 03:28:20;;;;;;;;;5.50;5.50;;;;;18.23;73.94;99875.16;5036650;28;46921;-72
2023/08/01 03:30:45;;;;;;;;;3.75;2.50;;;;;18.23;73.84;99876.00;5028634;28;45400;-72
2023/08/01 03:33:11;;;;;;;;;2.00;2.00;;;;;18.26;74.35;99877.59;5034284;28;45440;-72
2023/08/01 03:35:36;;;;;;;;;2.00;1.00;;;;;18.28;73.75;99879.16;5026682;28;62952;-72
2023/08/01 03:38:02;;;;;;;;;2.00;1.25;;;;;18.28;73.96;99889.75;5024399;28;45899;-73
2023/08/01 03:40:27;;;;;;;;;1.00;1.00;;;;;18.25;74.13;99881.19;5026856;28;45327;-72
2023/08/01 03:42:53;;;;;;;;;1.00;1.00;;;;;18.26;74.05;99881.09;5019712;28;45307;-72
2023/08/01 03:45:18;;;;;;;;;1.00;1.00;;;;;18.27;73.79;99898.66;5022751;28;45469;-71
2023/08/01 03:47:44;;;;;;;;;2.00;2.00;;;;;18.23;73.54;99896.34;5018717;28;47275;-73
2023/08/01 03:50:09;;;;;;;;;1.00;1.00;;;;;18.19;73.60;99901.03;5024939;28;73179;-71
2023/08/01 03:52:35;;;;;;;;;3.00;2.00;;;;;18.20;73.58;99905.34;5029206;28;45601;-72
2023/08/01 03:55:00;;;;;;;;;2.00;2.00;;;;;18.16;73.21;99895.94;5030549;28;58541;-72
2023/08/01 03:57:25;;;;;;;;;3.25;1.25;;;;;18.09;72.55;99895.53;5032656;28;47162;-72
2023/08/01 03:59:51;;;;;;;;;1.25;1.25;;;;;18.01;72.54;99904.03;5039037;28;45306;-73
2023/08/01 04:02:16;;;;;;;;;1.75;0.50;;;;;18.00;72.79;99899.69;5023631;28;64181;-72
2023/08/01 04:04:42;;;;;;;;;2.25;1.00;;;;;18.00;72.75;99906.78;5026425;28;45312;-73
2023/08/01 04:07:08;;;;;;;;;2.00;2.00;;;;;17.98;72.44;99906.06;5016865;28;47009;-73
2023/08/01 04:09:33;;;;;;;;;2.00;2.00;;;;;17.95;72.79;99898.34;5045844;28;45408;-72
2023/08/01 04:11:59;;;;;;;;;0.25;0.25;;;;;18.03;72.59;99909.22;5034901;28;45277;-72
2023/08/01 04:14:25;;;;;;;;;1.00;1.00;;;;;18.01;72.21;99909.34;5031895;28;45419;-72
2023/08/01 04:16:50;;;;;;;;;1.00;1.00;;;;;17.99;72.19;99907.78;5021874;28;57012;-72
2023/08/01 04:19:16;;;;;;;;;2.00;2.00;;;;;17.97;71.88;99907.88;5023302;28;74385;-73
2023/08/01 04:21:41;;;;;;;;;2.00;2.00;;;;;17.93;71.87;99905.53;5030635;28;45481;-72
2023/08/01 04:24:07;;;;;;;;;5.00;3.00;;;;;17.92;71.88;99911.78;5050738;28;45367;-72
2023/08/01 04:26:32;;;;;;;;;19.50;15.50;;;;;17.86;72.03;99904.28;5038402;28;46273;-72
2023/08/01 04:28:57;;;;;;;;;2.75;2.00;;;;;17.86;71.87;99917.53;5034974;28;45427;-73
2023/08/01 04:31:23;;;;;;;;;2.25;1.75;;;;;17.81;72.08;99917.78;5026955;28;45332;-72
2023/08/01 04:33:48;;;;;;;;;4.25;1.00;;;;;17.78;71.77;99907.44;5025257;28;52368;-72
2023/08/01 04:36:13;;;;;;;;;2.00;1.00;;;;;17.72;71.42;99906.06;5038645;28;48413;-72
2023/08/01 04:38:39;;;;;;;;;1.00;1.00;;;;;17.68;72.00;99904.59;5027774;28;61362;-72
2023/08/01 04:41:04;;;;;;;;;2.00;2.00;;;;;17.73;72.20;99913.06;5036907;28;65255;-72
2023/08/01 04:43:29;;;;;;;;;3.75;2.00;;;;;17.76;71.72;99914.63;5028631;28;45387;-71
2023/08/01 04:45:55;;;;;;;;;1.50;1.00;;;;;17.77;71.53;99909.22;5029860;28;70486;-71
2023/08/01 04:48:20;;;;;;;;;9.25;7.00;;;;;17.82;71.60;99909.75;5018988;28;71032;-72
2023/08/01 04:50:46;;;;;;;;;5.75;5.75;;;;;17.85;71.63;99914.00;5020962;28;62623;-72
2023/08/01 04:53:12;;;;;;;;;2.00;2.00;;;;;17.89;71.28;99912.84;5035103;28;45870;-72
2023/08/01 04:55:37;;;;;;;;;2.00;2.00;;;;;17.92;71.14;99911.78;5023726;28;46392;-73
2023/08/01 04:58:02;;;;;;;;;1.50;1.50;;;;;17.91;71.35;99913.59;5016636;28;50203;-73
2023/08/01 05:00:28;;;;;;;;;1.75;1.75;;;;;17.96;71.14;99906.16;5031124;28;51237;-71
2023/08/01 05:02:53;;;;;;;;;4.00;1.75;;;;;17.99;70.84;99921.00;5035668;28;68171;-71
2023/08/01 05:05:18;;;;;;;;;10.00;6.00;;;;;17.97;70.79;99921.09;5041916;28;61547;-74
2023/08/01 05:07:44;;;;;;;;;73.33;53.00;;;;;17.97;70.56;99917.59;5033103;28;68534;-73
2023/08/01 05:10:09;;;;;;;;;2.00;1.00;;;;;18.00;70.42;99923.50;5037179;28;58272;-73
2023/08/01 05:12:35;;;;;;;;;2.00;2.00;;;;;18.00;70.27;99914.72;5019070;28;45586;-74
2023/08/01 05:15:00;;;;;;;;;4.25;2.25;;;;;18.02;70.17;99926.06;5022096;28;73004;-72
2023/08/01 05:17:25;;;;;;;;;27.00;20.50;;;;;18.04;70.39;99924.13;5021267;28;58249;-71
2023/08/01 05:19:51;;;;;;;;;72.75;53.00;;;;;18.12;70.50;99926.25;5024668;28;45568;-72
2023/08/01 05:22:16;;;;;;;;;13.50;11.75;;;;;18.14;69.78;99933.13;5043779;28;45414;-72
2023/08/01 05:24:41;;;;;;;;;4.50;2.00;;;;;18.11;69.25;99932.50;5042049;28;48237;-72
2023/08/01 05:27:07;;;;;;;;;2.00;2.00;;;;;18.13;69.60;99943.81;5032290;28;72577;-71
2023/08/01 05:29:32;;;;;;;;;3.75;2.25;;;;;18.15;69.40;99944.56;5009645;28;45645;-71
2023/08/01 05:31:58;;;;;;;;;4.25;2.50;;;;;18.14;69.04;99950.81;5019645;28;45543;-72
2023/08/01 05:34:23;;;;;;;;;6.25;4.50;;;;;18.07;69.09;99941.63;5030683;28;47543;-75
2023/08/01 05:36:50;;;;;;;;;3.25;3.00;;;;;18.14;68.79;99959.59;5042696;28;45426;-72
2023/08/01 05:39:16;;;;;;;;;3.50;3.00;;;;;18.12;68.78;99961.53;5026768;28;45742;-67
2023/08/01 05:41:42;;;;;;;;;6.75;1.25;;;;;18.12;68.80;99958.88;5025473;28;45429;-67
2023/08/01 05:44:07;;;;;;;;;3.25;3.00;;;;;18.13;68.90;99960.59;5027382;28;45396;-67
2023/08/01 05:46:32;;;;;;;;;3.00;3.00;;;;;18.08;68.59;99967.13;5034851;28;45182;-68
2023/08/01 05:48:58;;;;;;;;;4.50;2.00;;;;;18.05;68.62;99972.66;5026299;28;53080;-67
2023/08/01 05:51:23;;;;;;;;;3.00;2.25;;;;;18.01;68.64;99958.81;5038220;28;64352;-67
2023/08/01 05:53:48;;;;;;;;;4.00;2.75;;;;;18.01;68.70;99967.59;5030950;28;73256;-67
2023/08/01 05:56:13;;;;;;;;;4.00;4.00;;;;;17.99;68.72;99966.84;5030150;28;58252;-68
2023/08/01 05:58:39;;;;;;;;;6.00;3.00;;;;;17.95;68.32;99973.28;5034405;28;67672;-68
2023/08/01 06:01:05;;;;;;;;;2.75;2.75;;;;;17.93;68.18;99969.91;5035515;28;45331;-67
2023/08/01 06:03:30;;;;;;;;;4.50;1.00;;;;;17.92;68.17;99964.72;5029906;28;45420;-69
2023/08/01 06:05:57;;;;;;;;;5.00;4.00;;;;;17.93;68.20;99969.06;5031193;28;45339;-68
2023/08/01 06:08:22;;;;;;;;;3.00;1.50;;;;;17.98;68.06;99972.25;5019996;28;45465;-66
2023/08/01 06:10:47;;;;;;;;;4.75;3.25;;;;;18.01;68.08;99979.97;5042230;28;45481;-67
2023/08/01 06:13:13;;;;;;;;;2.75;2.00;;;;;18.05;67.91;99978.81;5022049;28;45869;-67
2023/08/01 06:15:38;;;;;;;;;4.75;2.25;;;;;18.12;67.86;99973.94;5027468;28;55838;-66
2023/08/01 06:18:03;;;;;;;;;2.25;1.75;;;;;18.13;67.85;99965.88;5012043;28;45447;-67
2023/08/01 06:20:29;;;;;;;;;3.25;3.00;;;;;18.18;68.03;99968.19;5034687;28;45541;-68
2023/08/01 06:22:54;;;;;;;;;5.75;3.75;;;;;18.22;67.61;99977.63;5025214;28;46054;-68
2023/08/01 06:25:19;;;;;;;;;2.00;2.00;;;;;18.26;67.72;99981.75;5027824;28;62443;-67
2023/08/01 06:27:45;;;;;;;;;2.75;2.00;;;;;18.31;67.39;99984.03;5025273;28;68840;-67
2023/08/01 06:30:11;;;;;;;;;7.00;5.00;;;;;18.35;67.35;99996.97;5035480;28;52388;-68
2023/08/01 06:32:36;;;;;;;;;5.00;2.75;;;;;18.40;67.78;99996.66;5020636;28;45914;-67
2023/08/01 06:35:01;;;;;;;;;5.00;2.75;;;;;18.44;66.90;99990.16;5025032;28;63532;-65
2023/08/01 06:37:27;;;;;;;;;3.00;3.00;;;;;18.48;67.20;99993.44;5024703;28;45223;-66
2023/08/01 06:39:52;;;;;;;;;2.50;2.50;;;;;18.50;66.97;99997.69;5030683;28;58867;-66
2023/08/01 06:42:17;;;;;;;;;3.50;3.00;;;;;18.55;67.00;100003.47;5027506;28;73423;-66
2023/08/01 06:44:43;;;;;;;;;3.00;1.25;;;;;18.58;66.49;99997.97;5025702;28;45613;-66
2023/08/01 06:47:08;;;;;;;;;6.50;3.00;;;;;18.63;66.50;100005.59;5027509;28;50047;-66
2023/08/01 06:49:33;;;;;;;;;3.00;3.00;;;;;18.67;66.46;100007.06;5028687;28;73101;-66
2023/08/01 06:51:59;;;;;;;;;2.25;2.25;;;;;18.74;66.65;100013.59;5033206;28;68929;-69
2023/08/01 06:54:24;;;;;;;;;2.75;2.00;;;;;18.85;66.15;100004.88;5017299;28;45384;-66
2023/08/01 06:56:50;;;;;;;;;4.50;2.25;;;;;18.96;65.96;100014.69;5012694;28;45525;-66
2023/08/01 06:59:15;;;;;;;;;3.25;3.00;;;;;19.04;65.03;100017.66;5030579;28;65221;-66
2023/08/01 07:01:43;;;;;;;;;3.00;2.75;;;;;19.10;65.12;100019.00;5025705;28;45491;-72
2023/08/01 07:04:09;;;;;;;;;4.75;3.00;;;;;19.15;64.45;100025.63;5021374;28;45581;-68
2023/08/01 07:06:35;;;;;;;;;2.75;2.50;;;;;19.21;64.58;100020.84;5013208;28;45463;-67
2023/08/01 07:09:00;;;;;;;;;9.25;4.50;;;;;19.20;64.72;100022.66;5028932;28;45663;-69
2023/08/01 07:11:25;;;;;;;;;5.25;2.00;;;;;19.21;64.22;100016.41;5030567;28;69634;-68
2023/08/01 07:13:51;;;;;;;;;4.25;3.50;;;;;19.23;64.19;100018.91;5031502;28;71646;-69
2023/08/01 07:16:16;;;;;;;;;10.00;3.75;;;;;19.29;64.43;100021.13;5026535;28;63404;-70
2023/08/01 07:18:41;;;;;;;;;4.50;2.50;;;;;19.37;62.75;100021.41;5017854;28;45492;-70
2023/08/01 07:21:07;;;;;;;;;4.50;3.50;;;;;19.43;63.51;100026.25;5021002;28;45356;-70
2023/08/01 07:23:34;;;;;;;;;4.25;3.00;;;;;19.48;63.47;100025.91;5021311;28;71931;-72
2023/08/01 07:26:00;;;;;;;;;4.00;4.00;;;;;19.53;63.27;100032.53;5020918;28;45258;-71
2023/08/01 07:28:25;;;;;;;;;6.00;3.00;;;;;19.58;61.43;100034.00;5020374;28;68569;-69
2023/08/01 07:31:00;;;;;;;;;6.00;3.25;;;;;19.63;62.93;100032.69;5031259;28;45413;-70
2023/08/01 07:33:26;;;;;;;;;4.25;2.00;;;;;19.70;62.15;100035.72;5036805;28;45253;-70
2023/08/01 07:35:51;;;;;;;;;3.50;2.50;;;;;19.77;61.60;100031.66;5044190;28;58220;-69
2023/08/01 07:38:17;;;;;;;;;4.75;3.00;;;;;19.79;62.40;100031.53;5033609;28;62338;-71
2023/08/01 07:40:42;;;;;;;;;4.00;3.50;;;;;19.84;61.98;100046.16;5024418;28;45440;-70
2023/08/01 07:43:07;;;;;;;;;4.00;4.00;;;;;19.85;61.72;100042.53;5020056;28;69175;-72
2023/08/01 07:45:34;;;;;;;;;2.50;2.25;;;;;19.87;61.18;100048.56;5034006;28;60984;-71
2023/08/01 07:48:00;;;;;;;;;2.75;2.00;;;;;19.88;59.95;100044.09;5036983;28;45523;-70
2023/08/01 07:50:26;;;;;;;;;8.00;3.75;;;;;19.89;61.44;100044.00;5034059;28;47225;-70
2023/08/01 07:52:51;;;;;;;;;4.25;3.25;;;;;19.97;61.28;100043.38;5039736;28;45330;-70
2023/08/01 07:55:18;;;;;;;;;6.25;4.25;;;;;20.06;60.24;100052.44;5039432;28;45296;-70
2023/08/01 07:57:43;;;;;;;;;3.25;2.25;;;;;20.14;60.35;100063.34;5040470;28;45195;-70
2023/08/01 08:00:09;;;;;;;;;3.00;2.25;;;;;20.15;60.65;100056.22;5040476;28;46000;-70
2023/08/01 08:02:35;;;;;;;;;4.25;4.25;;;;;20.14;60.90;100051.88;5033465;28;45640;-70
2023/08/01 08:05:00;;;;;;;;;5.50;3.00;;;;;20.18;60.61;100059.47;5024089;28;58820;-69
2023/08/01 08:07:25;;;;;;;;;4.00;3.50;;;;;20.17;60.26;100068.41;5019489;28;69219;-70
2023/08/01 08:09:51;;;;;;;;;1.75;1.50;;;;;20.12;59.98;100054.66;5026046;28;60858;-70
2023/08/01 08:12:16;;;;;;;;;4.75;4.25;;;;;20.21;59.48;100069.03;5055948;28;45387;-70
2023/08/01 08:14:41;;;;;;;;;5.00;3.00;;;;;20.25;59.85;100068.66;5037992;28;62638;-70
2023/08/01 08:17:07;;;;;;;;;4.25;4.00;;;;;20.29;58.91;100063.94;5024509;28;62633;-70
2023/08/01 08:19:32;;;;;;;;;1.50;1.00;;;;;20.29;59.80;100063.94;5017528;28;46998;-70
2023/08/01 08:21:57;;;;;;;;;3.50;3.25;;;;;20.31;59.62;100064.69;5030021;28;45315;-70
2023/08/01 08:24:23;;;;;;;;;4.50;3.00;;;;;20.30;59.48;100063.81;5035662;28;66124;-70
2023/08/01 08:26:48;;;;;;;;;4.25;4.25;;;;;20.38;59.51;100065.91;5019882;28;45360;-70
2023/08/01 08:29:13;;;;;;;;;3.75;3.00;;;;;20.48;60.24;100061.53;5033397;28;51298;-70
2023/08/01 08:31:39;;;;;;;;;4.25;4.00;;;;;20.61;59.31;100069.41;5034369;28;45421;-69
2023/08/01 08:34:04;;;;;;;;;6.00;3.00;;;;;20.67;58.86;100065.41;5035529;28;45450;-70
2023/08/01 08:36:29;;;;;;;;;4.00;3.00;;;;;20.70;58.96;100066.97;5035703;28;62996;-70
2023/08/01 08:38:55;;;;;;;;;4.00;3.00;;;;;20.84;59.05;100067.56;5032890;28;75862;-70
2023/08/01 08:41:21;;;;;;;;;5.50;3.00;;;;;20.98;57.78;100076.22;5032311;28;67764;-70
2023/08/01 08:43:48;;;;;;;;;6.00;2.00;;;;;21.05;56.24;100078.28;5030334;28;45338;-70
2023/08/01 08:46:16;;;;;;;;;2.50;2.50;;;;;21.13;56.55;100076.81;5039811;28;45469;-70
2023/08/01 08:48:42;;;;;;;;;3.00;3.00;;;;;21.17;55.87;100062.28;5028546;28;47181;-70
2023/08/01 08:51:08;;;;;;;;;4.75;2.00;;;;;21.19;57.26;100084.28;5048867;28;45281;-69
2023/08/01 08:53:34;;;;;;;;;3.00;2.00;;;;;21.20;55.37;100073.50;5057267;28;45509;-69
2023/08/01 08:56:00;;;;;;;;;4.75;3.00;;;;;21.21;56.79;100077.00;5043681;28;45350;-70
2023/08/01 08:58:26;;;;;;;;;3.75;3.00;;;;;21.22;55.82;100084.03;5040482;28;46139;-70
2023/08/01 09:00:51;;;;;;;;;5.00;2.00;;;;;21.26;56.05;100081.97;5028445;28;65894;-70
2023/08/01 09:03:17;;;;;;;;;5.00;2.00;;;;;21.31;56.17;100080.59;5018787;28;45403;-70
2023/08/01 09:05:50;;;;;;;;;3.00;1.50;;;;;21.33;54.14;100083.97;5022923;28;45182;-70
2023/08/01 09:08:19;;;;;;;;;5.00;3.75;;;;;21.26;54.98;100081.97;5039105;28;45478;-70
2023/08/01 09:10:45;;;;;;;;;4.00;3.00;;;;;21.23;55.64;100070.59;5045411;28;45337;-70
2023/08/01 09:13:10;;;;;;;;;5.25;4.00;;;;;21.19;55.68;100068.31;5039111;28;45287;-70
2023/08/01 09:15:36;;;;;;;;;4.00;4.00;;;;;21.24;55.40;100071.44;5039169;28;45330;-71
2023/08/01 09:18:06;;;;;;;;;6.25;3.75;;;;;21.41;55.37;100084.19;5049991;28;45454;-70
2023/08/01 09:20:48;;;;;;;;;5.00;4.00;;;;;21.57;55.44;100082.97;5038152;28;45792;-72
2023/08/01 09:23:15;;;;;;;;;5.00;2.75;;;;;21.71;54.51;100073.78;5038593;28;45411;-70
2023/08/01 09:25:41;;;;;;;;;3.00;2.00;;;;;21.77;52.98;100078.63;5026062;28;45342;-70
2023/08/01 09:28:20;;;;;;;;;1.00;1.00;;;;;21.76;54.35;100079.56;5036842;28;46193;-70
2023/08/01 09:30:47;;;;;;;;;6.25;3.75;;;;;21.67;54.38;100083.84;5020327;28;45234;-69
2023/08/01 09:33:13;;;;;;;;;3.50;3.00;;;;;21.60;52.49;100090.66;5053520;28;45425;-69
2023/08/01 09:35:39;;;;;;;;;4.75;2.00;;;;;21.54;54.39;100091.19;5033613;28;56132;-70
2023/08/01 09:38:04;;;;;;;;;3.00;2.25;;;;;21.49;54.48;100085.41;5022827;28;46960;-70
2023/08/01 09:40:39;;;;;;;;;2.00;2.00;;;;;21.58;54.43;100090.84;5035191;28;57016;-70
2023/08/01 09:43:05;;;;;;;;;5.00;2.00;;;;;21.68;54.06;100082.91;5034355;28;45248;-70
2023/08/01 09:45:30;;;;;;;;;5.25;2.25;;;;;21.74;53.38;100085.06;5033173;28;45360;-70
2023/08/01 09:47:55;;;;;;;;;4.50;3.00;;;;;21.89;54.14;100079.41;5033359;28;75501;-70
2023/08/01 09:50:22;;;;;;;;;3.50;3.00;;;;;22.09;52.80;100077.69;5024680;28;66135;-70
2023/08/01 09:52:52;;;;;;;;;8.50;5.00;;;;;22.23;53.22;100082.66;5037679;28;45218;-71
2023/08/01 09:55:27;;;;;;;;;3.00;3.00;;;;;22.35;51.93;100086.13;5046716;28;45372;-70
2023/08/01 09:57:57;;;;;;;;;20.00;13.00;;;;;22.41;51.30;100084.75;5021796;28;48180;-69
2023/08/01 10:00:22;;;;;;;;;3.00;3.00;;;;;22.44;52.58;100084.50;5025943;28;45784;-71
2023/08/01 10:02:49;;;;;;;;;3.75;3.00;;;;;22.44;51.62;100079.16;5038425;28;45454;-69
2023/08/01 10:05:17;;;;;;;;;7.00;3.00;;;;;22.56;51.56;100088.75;5039828;28;45266;-69
2023/08/01 10:07:44;;;;;;;;;4.75;3.75;;;;;22.63;49.94;100084.56;5030470;28;45589;-70
2023/08/01 10:10:10;;;;;;;;;6.00;2.25;;;;;22.61;50.85;100083.00;5030224;28;45479;-70
2023/08/01 10:12:36;;;;;;;;;5.75;3.00;;;;;22.51;51.25;100088.31;5021970;28;45355;-70
2023/08/01 10:15:03;;;;;;;;;4.50;3.50;;;;;22.39;50.58;100087.53;5038555;28;45249;-69
2023/08/01 10:17:29;;;;;;;;;6.25;4.50;;;;;22.24;48.91;100081.72;5021480;28;45494;-71
2023/08/01 10:19:56;;;;;;;;;5.25;4.00;;;;;22.21;49.98;100087.28;5021791;28;45222;-70
2023/08/01 10:22:21;;;;;;;;;4.75;2.75;;;;;22.13;51.10;100092.44;5021408;28;45276;-70
2023/08/01 10:24:47;;;;;;;;;9.75;6.00;;;;;22.06;52.02;100097.47;5026261;28;67616;-71
2023/08/01 10:27:14;;;;;;;;;10.25;5.25;;;;;21.95;51.46;100081.53;5035941;28;46556;-71
2023/08/01 10:29:39;;;;;;;;;5.25;4.25;;;;;22.01;51.17;100091.69;5021648;28;45381;-69
2023/08/01 10:32:07;;;;;;;;;5.50;2.00;;;;;22.13;51.72;100082.63;5015972;28;45463;-70
2023/08/01 10:34:32;;;;;;;;;3.25;3.25;;;;;22.22;51.04;100086.31;5035113;28;45236;-69
2023/08/01 10:36:58;;;;;;;;;5.00;4.50;;;;;22.31;51.54;100076.69;5033434;28;72029;-70
2023/08/01 10:39:25;;;;;;;;;4.50;2.50;;;;;22.37;51.07;100068.19;5025178;28;45357;-69
2023/08/01 10:41:59;;;;;;;;;6.50;3.25;;;;;22.48;51.02;100080.56;5029881;28;45590;-69
2023/08/01 10:44:24;;;;;;;;;4.25;4.00;;;;;22.55;50.89;100077.22;5026171;28;45398;-70
2023/08/01 10:47:00;;;;;;;;;5.25;4.75;;;;;22.58;50.54;100083.28;5015646;28;46485;-70
2023/08/01 10:49:40;;;;;;;;;4.50;3.00;;;;;22.47;49.99;100093.06;5029728;28;45718;-71
2023/08/01 10:52:23;;;;;;;;;2.25;2.00;;;;;22.46;50.13;100102.03;5024980;28;45399;-70
2023/08/01 10:55:03;;;;;;;;;5.25;3.00;;;;;22.51;50.27;100104.31;5033908;28;45430;-70
2023/08/01 10:57:30;;;;;;;;;7.50;4.00;;;;;22.61;49.57;100099.84;5035273;28;48499;-70
2023/08/01 10:59:56;;;;;;;;;5.50;3.00;;;;;22.70;49.97;100098.19;5029270;28;45291;-71
2023/08/01 11:02:28;;;;;;;;;4.25;1.25;;;;;22.84;48.17;100100.50;5028264;28;45439;-71
2023/08/01 11:05:00;;;;;;;;;55.00;42.25;;;;;22.93;50.20;100088.16;5029825;28;45340;-71
2023/08/01 11:07:25;;;;;;;;;3.00;3.00;;;;;22.94;49.57;100098.66;5027453;28;48586;-72
2023/08/01 11:10:04;;;;;;;;;6.00;5.00;;;;;22.91;49.60;100101.63;5034710;28;45395;-70
2023/08/01 11:12:30;;;;;;;;;3.25;3.25;;;;;23.02;49.68;100102.47;5031744;28;45287;-71
2023/08/01 11:15:03;;;;;;;;;6.75;3.50;;;;;23.09;48.66;100117.84;5039359;28;45581;-70
2023/08/01 11:17:28;;;;;;;;;3.75;1.25;;;;;23.07;47.40;100116.28;5037271;28;48275;-71
2023/08/01 11:20:02;;;;;;;;;2.25;2.25;;;;;23.02;47.87;100100.66;5034739;28;45154;-71
2023/08/01 11:22:27;;;;;;;;;2.00;2.00;;;;;23.11;47.13;100105.22;5041628;28;45383;-70
2023/08/01 11:24:52;;;;;;;;;2.50;2.50;;;;;23.22;48.58;100101.56;5039179;28;62385;-70